createdAt,value
2019-03-15T00:00:59.710Z,19.47
2019-03-15T00:01:59.675Z,19.49
2019-03-15T00:02:59.688Z,19.47
2019-03-15T00:03:59.656Z,19.47
2019-03-15T00:04:59.521Z,19.47
2019-03-15T00:05:59.634Z,19.49
2019-03-15T00:06:59.967Z,19.47
2019-03-15T00:07:59.500Z,19.47
2019-03-15T00:08:59.733Z,19.46
2019-03-15T00:09:59.719Z,19.47
2019-03-15T00:11:00.184Z,19.43
2019-03-15T00:12:00.192Z,19.43
2019-03-15T00:12:59.573Z,19.45
2019-03-15T00:13:59.674Z,19.45
2019-03-15T00:14:59.737Z,19.45
2019-03-15T00:15:59.474Z,19.43
2019-03-15T00:17:00.106Z,19.42
2019-03-15T00:18:00.234Z,19.39
2019-03-15T00:18:59.485Z,19.4
2019-03-15T00:19:59.666Z,19.39
2019-03-15T00:20:59.784Z,19.4
2019-03-15T00:21:59.501Z,19.39
2019-03-15T00:22:59.778Z,19.39
2019-03-15T00:23:59.822Z,19.39
2019-03-15T00:24:59.621Z,19.36
2019-03-15T00:25:59.682Z,19.36
2019-03-15T00:26:59.490Z,19.39
2019-03-15T00:27:59.571Z,19.39
2019-03-15T00:28:59.708Z,19.37
2019-03-15T00:29:59.555Z,19.37
2019-03-15T00:30:59.664Z,19.36
2019-03-15T00:31:59.689Z,19.35
2019-03-15T00:32:59.567Z,19.35
2019-03-15T00:33:59.706Z,19.36
2019-03-15T00:34:59.725Z,19.35
2019-03-15T00:35:59.583Z,19.35
2019-03-15T00:36:59.703Z,19.32
2019-03-15T00:37:59.442Z,19.3
2019-03-15T00:38:59.544Z,19.33
2019-03-15T00:39:59.653Z,19.32
2019-03-15T00:40:59.514Z,19.32
2019-03-15T00:41:59.658Z,19.3
2019-03-15T00:42:59.426Z,19.27
2019-03-15T00:43:59.526Z,19.3
2019-03-15T00:44:59.705Z,19.3
2019-03-15T00:45:59.490Z,19.3
2019-03-15T00:46:59.869Z,19.3
2019-03-15T00:47:59.750Z,19.3
2019-03-15T00:48:59.469Z,19.29
2019-03-15T00:49:59.580Z,19.29
2019-03-15T00:50:59.681Z,19.29
2019-03-15T00:51:59.601Z,19.27
2019-03-15T00:52:59.579Z,19.3
2019-03-15T00:53:59.872Z,19.29
2019-03-15T00:54:59.497Z,19.27
2019-03-15T00:55:59.595Z,19.27
2019-03-15T00:56:59.471Z,19.26
2019-03-15T00:57:59.565Z,19.26
2019-03-15T00:58:59.612Z,19.26
2019-03-15T00:59:59.710Z,19.25
2019-03-15T01:00:59.594Z,19.27
2019-03-15T01:01:59.666Z,19.26
2019-03-15T01:02:59.595Z,19.25
2019-03-15T01:03:59.607Z,19.26
2019-03-15T01:04:59.644Z,19.23
2019-03-15T01:05:59.461Z,19.25
2019-03-15T01:06:59.526Z,19.23
2019-03-15T01:07:59.691Z,19.25
2019-03-15T01:08:59.465Z,19.23
2019-03-15T01:09:59.673Z,19.25
2019-03-15T01:10:59.473Z,19.23
2019-03-15T01:11:59.623Z,19.23
2019-03-15T01:12:59.665Z,19.22
2019-03-15T01:13:59.722Z,19.23
2019-03-15T01:14:59.512Z,19.2
2019-03-15T01:16:00.240Z,19.19
2019-03-15T01:17:01.137Z,19.2
2019-03-15T01:17:59.550Z,19.19
2019-03-15T01:18:59.717Z,19.22
2019-03-15T01:19:59.530Z,19.19
2019-03-15T01:20:59.510Z,19.19
2019-03-15T01:21:59.879Z,19.2
2019-03-15T01:22:59.486Z,19.19
2019-03-15T01:23:59.780Z,19.2
2019-03-15T01:24:59.664Z,19.19
2019-03-15T01:25:59.750Z,19.18
2019-03-15T01:26:59.576Z,19.15
2019-03-15T01:27:59.480Z,19.16
2019-03-15T01:28:59.573Z,19.16
2019-03-15T01:29:59.627Z,19.16
2019-03-15T01:30:59.539Z,19.18
2019-03-15T01:31:59.585Z,19.19
2019-03-15T01:33:00.390Z,19.19
2019-03-15T01:33:59.910Z,19.18
2019-03-15T01:34:59.610Z,19.18
2019-03-15T01:36:00.254Z,19.16
2019-03-15T01:36:59.595Z,19.18
2019-03-15T01:38:00.085Z,19.15
2019-03-15T01:38:59.503Z,19.13
2019-03-15T01:40:01.196Z,19.13
2019-03-15T01:40:59.746Z,19.15
2019-03-15T01:41:59.493Z,19.15
2019-03-15T01:42:59.657Z,19.13
2019-03-15T01:43:59.743Z,19.13
2019-03-15T01:44:59.581Z,19.13
2019-03-15T01:45:59.561Z,19.13
2019-03-15T01:46:59.653Z,19.12
2019-03-15T01:47:59.498Z,19.12
2019-03-15T01:48:59.659Z,19.12
2019-03-15T01:49:59.682Z,19.12
2019-03-15T01:50:59.584Z,19.12
2019-03-15T01:51:59.542Z,19.11
2019-03-15T01:52:59.391Z,19.12
2019-03-15T01:53:59.575Z,19.09
2019-03-15T01:54:59.566Z,19.11
2019-03-15T01:55:59.447Z,19.11
2019-03-15T01:56:59.546Z,19.09
2019-03-15T01:57:59.593Z,19.09
2019-03-15T01:58:59.639Z,19.09
2019-03-15T01:59:59.619Z,19.06
2019-03-15T02:00:59.702Z,19.08
2019-03-15T02:01:59.439Z,19.12
2019-03-15T02:03:02.926Z,19.09
2019-03-15T02:03:59.786Z,19.09
2019-03-15T02:04:59.455Z,19.09
2019-03-15T02:05:59.672Z,19.08
2019-03-15T02:06:59.544Z,19.08
2019-03-15T02:08:01.105Z,19.06
2019-03-15T02:08:59.610Z,19.08
2019-03-15T02:09:59.450Z,19.06
2019-03-15T02:10:59.574Z,19.08
2019-03-15T02:11:59.992Z,19.05
2019-03-15T02:12:59.510Z,19.05
2019-03-15T02:13:59.559Z,19.05
2019-03-15T02:14:59.439Z,19.08
2019-03-15T02:15:59.522Z,19.06
2019-03-15T02:17:00.966Z,19.05
2019-03-15T02:17:59.451Z,19.05
2019-03-15T02:18:59.547Z,19.05
2019-03-15T02:19:59.572Z,19.03
2019-03-15T02:20:59.863Z,19.03
2019-03-15T02:21:59.657Z,19.02
2019-03-15T02:22:59.743Z,19.03
2019-03-15T02:23:59.559Z,19.03
2019-03-15T02:24:59.666Z,19.06
2019-03-15T02:25:59.544Z,19.05
2019-03-15T02:26:59.614Z,19.02
2019-03-15T02:27:59.649Z,19.01
2019-03-15T02:28:59.492Z,19.01
2019-03-15T02:29:59.529Z,19.02
2019-03-15T02:31:00.400Z,19.01
2019-03-15T02:31:59.596Z,19.02
2019-03-15T02:32:59.636Z,19.02
2019-03-15T02:34:00.634Z,19.01
2019-03-15T02:34:59.562Z,19.01
2019-03-15T02:35:59.676Z,19.01
2019-03-15T02:36:59.512Z,19.01
2019-03-15T02:38:00.618Z,19.01
2019-03-15T02:38:59.717Z,18.99
2019-03-15T02:39:59.697Z,19.01
2019-03-15T02:40:59.531Z,19.01
2019-03-15T02:41:59.720Z,19.01
2019-03-15T02:42:59.448Z,18.99
2019-03-15T02:43:59.626Z,18.97
2019-03-15T02:44:59.722Z,18.98
2019-03-15T02:45:59.572Z,18.97
2019-03-15T02:46:59.618Z,18.98
2019-03-15T02:47:59.776Z,18.98
2019-03-15T02:48:59.448Z,18.95
2019-03-15T02:50:02.328Z,18.98
2019-03-15T02:50:59.459Z,18.97
2019-03-15T02:51:59.471Z,18.95
2019-03-15T02:52:59.811Z,18.97
2019-03-15T02:54:01.375Z,18.95
2019-03-15T02:54:59.508Z,18.95
2019-03-15T02:55:59.874Z,18.95
2019-03-15T02:56:59.450Z,18.97
2019-03-15T02:57:59.569Z,18.95
2019-03-15T02:58:59.682Z,18.94
2019-03-15T02:59:59.565Z,18.94
2019-03-15T03:00:59.574Z,18.95
2019-03-15T03:02:01.075Z,18.92
2019-03-15T03:02:59.841Z,18.94
2019-03-15T03:03:59.611Z,18.94
2019-03-15T03:04:59.517Z,18.92
2019-03-15T03:06:01.844Z,18.94
2019-03-15T03:06:59.571Z,18.92
2019-03-15T03:07:59.457Z,18.92
2019-03-15T03:08:59.565Z,18.91
2019-03-15T03:09:59.624Z,18.92
2019-03-15T03:10:59.650Z,18.92
2019-03-15T03:11:59.612Z,18.94
2019-03-15T03:12:59.397Z,18.91
2019-03-15T03:13:59.789Z,18.91
2019-03-15T03:14:59.604Z,18.92
2019-03-15T03:15:59.449Z,18.9
2019-03-15T03:16:59.547Z,18.92
2019-03-15T03:17:59.705Z,18.88
2019-03-15T03:19:01.689Z,18.88
2019-03-15T03:19:59.565Z,18.88
2019-03-15T03:20:59.682Z,18.91
2019-03-15T03:21:59.528Z,18.88
2019-03-15T03:22:59.579Z,18.9
2019-03-15T03:23:59.393Z,18.88
2019-03-15T03:24:59.497Z,18.9
2019-03-15T03:26:00.032Z,18.91
2019-03-15T03:26:59.525Z,18.87
2019-03-15T03:28:01.690Z,18.88
2019-03-15T03:29:00.037Z,18.85
2019-03-15T03:29:59.600Z,18.87
2019-03-15T03:30:59.887Z,18.88
2019-03-15T03:31:59.804Z,18.88
2019-03-15T03:32:59.752Z,18.87
2019-03-15T03:33:59.697Z,18.88
2019-03-15T03:34:59.653Z,18.9
2019-03-15T03:36:01.435Z,18.85
2019-03-15T03:36:59.624Z,18.9
2019-03-15T03:37:59.478Z,18.87
2019-03-15T03:38:59.621Z,18.87
2019-03-15T03:40:02.989Z,18.85
2019-03-15T03:41:02.239Z,18.84
2019-03-15T03:41:59.521Z,18.85
2019-03-15T03:42:59.657Z,18.87
2019-03-15T03:43:59.454Z,18.84
2019-03-15T03:45:00.593Z,18.85
2019-03-15T03:45:59.639Z,18.85
2019-03-15T03:46:59.570Z,18.84
2019-03-15T03:47:59.525Z,18.85
2019-03-15T03:48:59.477Z,18.85
2019-03-15T03:49:59.546Z,18.84
2019-03-15T03:51:00.748Z,18.85
2019-03-15T03:51:59.538Z,18.85
2019-03-15T03:52:59.549Z,18.81
2019-03-15T03:53:59.584Z,18.83
2019-03-15T03:54:59.473Z,18.81
2019-03-15T03:55:59.524Z,18.84
2019-03-15T03:56:59.599Z,18.83
2019-03-15T03:57:59.615Z,18.81
2019-03-15T03:58:59.551Z,18.83
2019-03-15T04:00:00.536Z,18.83
2019-03-15T04:00:59.415Z,18.84
2019-03-15T04:01:59.612Z,18.81
2019-03-15T04:02:59.421Z,18.81
2019-03-15T04:03:59.415Z,18.81
2019-03-15T04:04:59.532Z,18.81
2019-03-15T04:05:59.393Z,18.8
2019-03-15T04:06:59.583Z,18.81
2019-03-15T04:07:59.729Z,18.81
2019-03-15T04:08:59.737Z,18.8
2019-03-15T04:09:59.493Z,18.8
2019-03-15T04:10:59.659Z,18.78
2019-03-15T04:11:59.431Z,18.8
2019-03-15T04:12:59.596Z,18.8
2019-03-15T04:13:59.447Z,18.77
2019-03-15T04:14:59.473Z,18.8
2019-03-15T04:15:59.622Z,18.8
2019-03-15T04:16:59.377Z,18.78
2019-03-15T04:17:59.808Z,18.8
2019-03-15T04:18:59.576Z,18.78
2019-03-15T04:19:59.434Z,18.8
2019-03-15T04:20:59.630Z,18.78
2019-03-15T04:21:59.939Z,18.78
2019-03-15T04:22:59.458Z,18.78
2019-03-15T04:23:59.520Z,18.78
2019-03-15T04:24:59.311Z,18.77
2019-03-15T04:25:59.466Z,18.77
2019-03-15T04:26:59.580Z,18.77
2019-03-15T04:27:59.391Z,18.77
2019-03-15T04:28:59.408Z,18.75
2019-03-15T04:29:59.831Z,18.75
2019-03-15T04:30:59.529Z,18.75
2019-03-15T04:31:59.423Z,18.74
2019-03-15T04:32:59.689Z,18.77
2019-03-15T04:33:59.403Z,18.77
2019-03-15T04:34:59.588Z,18.74
2019-03-15T04:36:00.131Z,18.77
2019-03-15T04:36:59.480Z,18.75
2019-03-15T04:37:59.485Z,18.75
2019-03-15T04:38:59.341Z,18.75
2019-03-15T04:39:59.514Z,18.78
2019-03-15T04:40:59.545Z,18.77
2019-03-15T04:41:59.367Z,18.77
2019-03-15T04:42:59.534Z,18.77
2019-03-15T04:43:59.591Z,18.75
2019-03-15T04:44:59.442Z,18.8
2019-03-15T04:45:59.598Z,18.81
2019-03-15T04:46:59.547Z,18.81
2019-03-15T04:47:59.446Z,18.81
2019-03-15T04:48:59.550Z,18.83
2019-03-15T04:49:59.459Z,18.84
2019-03-15T04:50:59.443Z,18.87
2019-03-15T04:51:59.536Z,18.84
2019-03-15T04:52:59.432Z,18.84
2019-03-15T04:53:59.571Z,18.88
2019-03-15T04:54:59.596Z,18.91
2019-03-15T04:55:59.441Z,18.91
2019-03-15T04:56:59.543Z,18.91
2019-03-15T04:57:59.683Z,18.91
2019-03-15T04:58:59.489Z,18.92
2019-03-15T04:59:59.547Z,18.95
2019-03-15T05:00:59.325Z,18.97
2019-03-15T05:01:59.565Z,18.98
2019-03-15T05:02:59.486Z,18.98
2019-03-15T05:03:59.382Z,19.01
2019-03-15T05:05:01.373Z,19.03
2019-03-15T05:06:04.364Z,19.03
2019-03-15T05:06:59.447Z,19.05
2019-03-15T05:07:59.553Z,19.06
2019-03-15T05:08:59.388Z,19.08
2019-03-15T05:09:59.453Z,19.11
2019-03-15T05:10:59.674Z,19.09
2019-03-15T05:11:59.403Z,19.13
2019-03-15T05:12:59.411Z,19.15
2019-03-15T05:13:59.685Z,19.16
2019-03-15T05:14:59.365Z,19.18
2019-03-15T05:15:59.551Z,19.19
2019-03-15T05:16:59.564Z,19.2
2019-03-15T05:17:59.391Z,19.23
2019-03-15T05:18:59.609Z,19.25
2019-03-15T05:19:59.631Z,19.26
2019-03-15T05:20:59.428Z,19.27
2019-03-15T05:21:59.460Z,19.3
2019-03-15T05:22:59.629Z,19.3
2019-03-15T05:23:59.425Z,19.3
2019-03-15T05:24:59.783Z,19.33
2019-03-15T05:25:59.350Z,19.33
2019-03-15T05:26:59.776Z,19.36
2019-03-15T05:27:59.491Z,19.37
2019-03-15T05:28:59.324Z,19.39
2019-03-15T05:29:59.471Z,19.43
2019-03-15T05:30:59.648Z,19.43
2019-03-15T05:31:59.466Z,19.42
2019-03-15T05:32:59.504Z,19.46
2019-03-15T05:33:59.646Z,19.47
2019-03-15T05:34:59.513Z,19.47
2019-03-15T05:35:59.531Z,19.5
2019-03-15T05:36:59.573Z,19.49
2019-03-15T05:37:59.396Z,19.52
2019-03-15T05:38:59.538Z,19.52
2019-03-15T05:39:59.373Z,19.53
2019-03-15T05:40:59.741Z,19.54
2019-03-15T05:41:59.633Z,19.56
2019-03-15T05:42:59.400Z,19.54
2019-03-15T05:43:59.459Z,19.58
2019-03-15T05:44:59.681Z,19.6
2019-03-15T05:45:59.490Z,19.61
2019-03-15T05:46:59.472Z,19.58
2019-03-15T05:47:59.518Z,19.61
2019-03-15T05:48:59.396Z,19.63
2019-03-15T05:49:59.492Z,19.63
2019-03-15T05:50:59.436Z,19.65
2019-03-15T05:51:59.480Z,19.65
2019-03-15T05:52:59.598Z,19.65
2019-03-15T05:53:59.373Z,19.65
2019-03-15T05:54:59.434Z,19.65
2019-03-15T05:55:59.874Z,19.64
2019-03-15T05:56:59.327Z,19.65
2019-03-15T05:57:59.462Z,19.67
2019-03-15T05:58:59.656Z,19.67
2019-03-15T05:59:59.339Z,19.68
2019-03-15T06:00:59.528Z,19.67
2019-03-15T06:01:59.538Z,19.67
2019-03-15T06:02:59.484Z,19.63
2019-03-15T06:03:59.512Z,19.53
2019-03-15T06:04:59.331Z,19.4
2019-03-15T06:05:59.529Z,19.3
2019-03-15T06:06:59.542Z,19.23
2019-03-15T06:07:59.491Z,19.18
2019-03-15T06:08:59.428Z,19.13
2019-03-15T06:09:59.547Z,19.18
2019-03-15T06:10:59.499Z,19.18
2019-03-15T06:11:59.552Z,19.18
2019-03-15T06:12:59.712Z,19.16
2019-03-15T06:13:59.447Z,19.08
2019-03-15T06:14:59.729Z,19.02
2019-03-15T06:15:59.314Z,18.98
2019-03-15T06:16:59.499Z,18.98
2019-03-15T06:17:59.611Z,18.99
2019-03-15T06:18:59.340Z,19.03
2019-03-15T06:19:59.585Z,19.08
2019-03-15T06:20:59.573Z,19.11
2019-03-15T06:21:59.492Z,19.12
2019-03-15T06:22:59.812Z,19.16
2019-03-15T06:23:59.662Z,19.19
2019-03-15T06:24:59.578Z,19.22
2019-03-15T06:25:59.665Z,19.22
2019-03-15T06:26:59.699Z,19.23
2019-03-15T06:27:59.462Z,19.25
2019-03-15T06:29:02.179Z,19.25
2019-03-15T06:29:59.390Z,19.26
2019-03-15T06:30:59.630Z,19.27
2019-03-15T06:31:59.597Z,19.29
2019-03-15T06:32:59.613Z,19.27
2019-03-15T06:33:59.570Z,19.29
2019-03-15T06:34:59.392Z,19.3
2019-03-15T06:35:59.416Z,19.32
2019-03-15T06:36:59.490Z,19.32
2019-03-15T06:37:59.354Z,19.33
2019-03-15T06:38:59.553Z,19.32
2019-03-15T06:39:59.669Z,19.33
2019-03-15T06:41:00.671Z,19.35
2019-03-15T06:41:59.564Z,19.33
2019-03-15T06:42:59.645Z,19.35
2019-03-15T06:43:59.520Z,19.36
2019-03-15T06:44:59.600Z,19.36
2019-03-15T06:45:59.384Z,19.35
2019-03-15T06:46:59.601Z,19.35
2019-03-15T06:48:01.316Z,19.37
2019-03-15T06:48:59.491Z,19.35
2019-03-15T06:49:59.559Z,19.36
2019-03-15T06:50:59.619Z,19.33
2019-03-15T06:51:59.423Z,19.36
2019-03-15T06:52:59.435Z,19.33
2019-03-15T06:54:12.324Z,19.35
2019-03-15T06:55:00.622Z,19.36
2019-03-15T06:55:59.424Z,19.35
2019-03-15T06:56:59.555Z,19.33
2019-03-15T06:57:59.645Z,19.35
2019-03-15T06:58:59.627Z,19.33
2019-03-15T06:59:59.978Z,19.33
2019-03-15T07:00:59.507Z,19.33
2019-03-15T07:01:59.574Z,19.33
2019-03-15T07:02:59.302Z,19.33
2019-03-15T07:03:59.450Z,19.33
2019-03-15T07:04:59.926Z,19.36
2019-03-15T07:05:59.451Z,19.32
2019-03-15T07:06:59.520Z,19.33
2019-03-15T07:07:59.532Z,19.33
2019-03-15T07:08:59.434Z,19.33
2019-03-15T07:09:59.473Z,19.33
2019-03-15T07:10:59.338Z,19.32
2019-03-15T07:12:11.825Z,19.35
2019-03-15T07:12:59.527Z,19.35
2019-03-15T07:13:59.469Z,19.35
2019-03-15T07:14:59.492Z,19.33
2019-03-15T07:15:59.830Z,19.35
2019-03-15T07:16:59.504Z,19.3
2019-03-15T07:17:59.598Z,19.32
2019-03-15T07:18:59.586Z,19.35
2019-03-15T07:19:59.616Z,19.33
2019-03-15T07:20:59.506Z,19.33
2019-03-15T07:21:59.810Z,19.35
2019-03-15T07:22:59.589Z,19.33
2019-03-15T07:23:59.644Z,19.32
2019-03-15T07:24:59.513Z,19.33
2019-03-15T07:25:59.530Z,19.33
2019-03-15T07:27:13.999Z,19.33
2019-03-15T07:27:59.324Z,19.33
2019-03-15T07:28:59.514Z,19.32
2019-03-15T07:30:00.810Z,19.3
2019-03-15T07:30:59.477Z,19.3
2019-03-15T07:31:59.882Z,19.33
2019-03-15T07:32:59.765Z,19.3
2019-03-15T07:33:59.466Z,19.3
2019-03-15T07:34:59.527Z,19.32
2019-03-15T07:36:00.000Z,19.29
2019-03-15T07:36:59.495Z,19.32
2019-03-15T07:37:59.493Z,19.32
2019-03-15T07:38:59.408Z,19.3
2019-03-15T07:39:59.517Z,19.33
2019-03-15T07:40:59.500Z,19.3
2019-03-15T07:41:59.466Z,19.33
2019-03-15T07:43:05.760Z,19.3
2019-03-15T07:43:59.622Z,19.3
2019-03-15T07:44:59.439Z,19.32
2019-03-15T07:45:59.407Z,19.3
2019-03-15T07:46:59.527Z,19.32
2019-03-15T07:47:59.389Z,19.3
2019-03-15T07:48:59.423Z,19.29
2019-03-15T07:49:59.622Z,19.27
2019-03-15T07:50:59.456Z,19.27
2019-03-15T07:51:59.559Z,19.26
2019-03-15T07:52:59.307Z,19.27
2019-03-15T07:53:59.705Z,19.25
2019-03-15T07:54:59.616Z,19.29
2019-03-15T07:55:59.313Z,19.29
2019-03-15T07:56:59.457Z,19.29
2019-03-15T07:57:59.471Z,19.29
2019-03-15T07:58:59.790Z,19.27
2019-03-15T07:59:59.717Z,19.26
2019-03-15T08:00:59.648Z,19.3
2019-03-15T08:01:59.374Z,19.3
2019-03-15T08:02:59.421Z,19.32
2019-03-15T08:03:59.357Z,19.33
2019-03-15T08:04:59.371Z,19.33
2019-03-15T08:05:59.494Z,19.33
2019-03-15T08:06:59.383Z,19.36
2019-03-15T08:07:59.513Z,19.36
2019-03-15T08:08:59.493Z,19.37
2019-03-15T08:09:59.392Z,19.4
2019-03-15T08:10:59.632Z,19.42
2019-03-15T08:11:59.486Z,19.42
2019-03-15T08:12:59.380Z,19.45
2019-03-15T08:13:59.374Z,19.45
2019-03-15T08:14:59.227Z,19.47
2019-03-15T08:16:00.060Z,19.5
2019-03-15T08:16:59.580Z,19.52
2019-03-15T08:17:59.423Z,19.52
2019-03-15T08:18:59.437Z,19.56
2019-03-15T08:19:59.647Z,19.56
2019-03-15T08:20:59.339Z,19.58
2019-03-15T08:21:59.611Z,19.58
2019-03-15T08:22:59.327Z,19.6
2019-03-15T08:23:59.445Z,19.63
2019-03-15T08:24:59.480Z,19.63
2019-03-15T08:25:59.288Z,19.65
2019-03-15T08:26:59.376Z,19.64
2019-03-15T08:27:59.513Z,19.68
2019-03-15T08:28:59.440Z,19.7
2019-03-15T08:29:59.373Z,19.71
2019-03-15T08:30:59.677Z,19.71
2019-03-15T08:31:59.508Z,19.73
2019-03-15T08:33:11.644Z,19.73
2019-03-15T08:33:59.626Z,19.75
2019-03-15T08:34:59.446Z,19.75
2019-03-15T08:35:59.605Z,19.75
2019-03-15T08:36:59.661Z,19.77
2019-03-15T08:37:59.497Z,19.78
2019-03-15T08:38:59.994Z,19.78
2019-03-15T08:39:59.451Z,19.8
2019-03-15T08:40:59.508Z,19.8
2019-03-15T08:41:59.584Z,19.81
2019-03-15T08:42:59.390Z,19.82
2019-03-15T08:43:59.538Z,19.82
2019-03-15T08:44:59.667Z,19.85
2019-03-15T08:46:03.601Z,19.85
2019-03-15T08:46:59.618Z,19.85
2019-03-15T08:47:59.374Z,19.86
2019-03-15T08:48:59.565Z,19.85
2019-03-15T08:49:59.597Z,19.88
2019-03-15T08:50:59.657Z,19.88
2019-03-15T08:52:04.520Z,19.86
2019-03-15T08:52:59.581Z,19.89
2019-03-15T08:53:59.457Z,19.85
2019-03-15T08:55:06.257Z,19.92
2019-03-15T08:55:59.377Z,19.92
2019-03-15T08:56:59.428Z,19.92
2019-03-15T08:58:22.875Z,19.93
2019-03-15T08:58:59.540Z,19.96
2019-03-15T08:59:59.397Z,19.96
2019-03-15T09:00:59.878Z,19.99
2019-03-15T09:01:59.275Z,19.99
2019-03-15T09:02:59.443Z,19.99
2019-03-15T09:03:59.494Z,20.04
2019-03-15T09:04:59.328Z,20.04
2019-03-15T09:05:59.465Z,20.04
2019-03-15T09:06:59.264Z,20.05
2019-03-15T09:07:59.383Z,20.05
2019-03-15T09:08:59.473Z,20.07
2019-03-15T09:10:04.076Z,20.07
2019-03-15T09:10:59.378Z,20.09
2019-03-15T09:11:59.560Z,20.11
2019-03-15T09:12:59.322Z,20.11
2019-03-15T09:13:59.424Z,20.12
2019-03-15T09:14:59.530Z,20.13
2019-03-15T09:15:59.365Z,20.15
2019-03-15T09:16:59.447Z,20.15
2019-03-15T09:17:59.251Z,20.15
2019-03-15T09:18:59.370Z,20.15
2019-03-15T09:19:59.422Z,20.16
2019-03-15T09:20:59.563Z,20.19
2019-03-15T09:22:01.069Z,20.16
2019-03-15T09:22:59.600Z,20.16
2019-03-15T09:23:59.595Z,20.15
2019-03-15T09:24:59.449Z,20.2
2019-03-15T09:25:59.448Z,20.19
2019-03-15T09:26:59.418Z,20.2
2019-03-15T09:27:59.495Z,20.19
2019-03-15T09:28:59.319Z,20.18
2019-03-15T09:29:59.419Z,20.2
2019-03-15T09:30:59.422Z,20.19
2019-03-15T09:32:09.803Z,20.19
2019-03-15T09:33:03.616Z,20.22
2019-03-15T09:33:59.437Z,20.2
2019-03-15T09:34:59.454Z,20.2
2019-03-15T09:35:59.323Z,20.19
2019-03-15T09:36:59.490Z,20.19
2019-03-15T09:37:59.308Z,20.2
2019-03-15T09:38:59.506Z,20.22
2019-03-15T09:39:59.517Z,20.18
2019-03-15T09:40:59.436Z,20.19
2019-03-15T09:41:59.424Z,20.19
2019-03-15T09:43:00.341Z,20.2
2019-03-15T09:43:59.358Z,20.18
2019-03-15T09:45:00.799Z,20.19
2019-03-15T09:45:59.379Z,20.19
2019-03-15T09:47:02.991Z,20.2
2019-03-15T09:47:59.569Z,20.22
2019-03-15T09:49:00.166Z,20.25
2019-03-15T09:49:59.413Z,20.2
2019-03-15T09:50:59.494Z,20.27
2019-03-15T09:51:59.273Z,20.29
2019-03-15T09:52:59.628Z,20.27
2019-03-15T09:53:59.266Z,20.27
2019-03-15T09:54:59.326Z,20.27
2019-03-15T09:55:59.584Z,20.3
2019-03-15T09:56:59.292Z,20.27
2019-03-15T09:57:59.482Z,20.29
2019-03-15T09:58:59.412Z,20.25
2019-03-15T09:59:59.394Z,20.27
2019-03-15T10:01:01.291Z,20.3
2019-03-15T10:01:59.423Z,20.29
2019-03-15T10:02:59.573Z,20.32
2019-03-15T10:03:59.474Z,20.33
2019-03-15T10:05:11.971Z,20.29
2019-03-15T10:05:59.341Z,20.33
2019-03-15T10:06:59.654Z,20.33
2019-03-15T10:07:59.546Z,20.36
2019-03-15T10:08:59.404Z,20.36
2019-03-15T10:10:19.495Z,20.33
2019-03-15T10:10:59.605Z,20.37
2019-03-15T10:11:59.276Z,20.35
2019-03-15T10:13:06.731Z,20.37
2019-03-15T10:14:02.576Z,20.36
2019-03-15T10:14:59.340Z,20.35
2019-03-15T10:15:59.310Z,20.37
2019-03-15T10:16:59.462Z,20.35
2019-03-15T10:17:59.263Z,20.4
2019-03-15T10:18:59.381Z,20.36
2019-03-15T10:19:59.509Z,20.36
2019-03-15T10:20:59.578Z,20.39
2019-03-15T10:21:59.351Z,20.37
2019-03-15T10:23:06.834Z,20.37
2019-03-15T10:23:59.323Z,20.36
2019-03-15T10:24:59.483Z,20.37
2019-03-15T10:25:59.348Z,20.37
2019-03-15T10:26:59.615Z,20.39
2019-03-15T10:27:59.539Z,20.4
2019-03-15T10:28:59.245Z,20.39
2019-03-15T10:29:59.414Z,20.4
2019-03-15T10:30:59.436Z,20.39
2019-03-15T10:31:59.431Z,20.4
2019-03-15T10:32:59.456Z,20.42
2019-03-15T10:33:59.294Z,20.42
2019-03-15T10:34:59.263Z,20.39
2019-03-15T10:35:59.448Z,20.42
2019-03-15T10:36:59.307Z,20.42
2019-03-15T10:37:59.451Z,20.42
2019-03-15T10:38:59.460Z,20.42
2019-03-15T10:39:59.342Z,20.42
2019-03-15T10:41:01.731Z,20.43
2019-03-15T10:41:59.429Z,20.46
2019-03-15T10:42:59.327Z,20.43
2019-03-15T10:43:59.382Z,20.44
2019-03-15T10:44:59.769Z,20.43
2019-03-15T10:45:59.310Z,20.44
2019-03-15T10:46:59.583Z,20.43
2019-03-15T10:47:59.382Z,20.44
2019-03-15T10:48:59.414Z,20.44
2019-03-15T10:49:59.568Z,20.43
2019-03-15T10:51:00.179Z,20.44
2019-03-15T10:51:59.465Z,20.43
2019-03-15T10:52:59.500Z,20.43
2019-03-15T10:53:59.293Z,20.44
2019-03-15T10:54:59.586Z,20.47
2019-03-15T10:56:01.014Z,20.44
2019-03-15T10:56:59.415Z,20.42
2019-03-15T10:57:59.493Z,20.39
2019-03-15T10:58:59.421Z,20.3
2019-03-15T10:59:59.448Z,20.29
2019-03-15T11:00:59.462Z,20.26
2019-03-15T11:01:59.270Z,20.25
2019-03-15T11:02:59.433Z,20.27
2019-03-15T11:03:59.525Z,20.25
2019-03-15T11:04:59.308Z,20.25
2019-03-15T11:05:59.404Z,20.25
2019-03-15T11:06:59.217Z,20.29
2019-03-15T11:07:59.411Z,20.32
2019-03-15T11:08:59.356Z,20.32
2019-03-15T11:09:59.344Z,20.3
2019-03-15T11:10:59.323Z,20.33
2019-03-15T11:11:59.453Z,20.35
2019-03-15T11:12:59.322Z,20.37
2019-03-15T11:13:59.317Z,20.36
2019-03-15T11:14:59.464Z,20.36
2019-03-15T11:15:59.250Z,20.37
2019-03-15T11:16:59.327Z,20.37
2019-03-15T11:17:59.439Z,20.4
2019-03-15T11:18:59.217Z,20.37
2019-03-15T11:19:59.435Z,20.42
2019-03-15T11:20:59.863Z,20.4
2019-03-15T11:21:59.389Z,20.39
2019-03-15T11:22:59.588Z,20.4
2019-03-15T11:23:59.196Z,20.39
2019-03-15T11:24:59.323Z,20.39
2019-03-15T11:26:14.379Z,20.37
2019-03-15T11:26:59.375Z,20.37
2019-03-15T11:27:59.330Z,20.37
2019-03-15T11:28:59.437Z,20.37
2019-03-15T11:29:59.276Z,20.37
2019-03-15T11:31:01.117Z,20.35
2019-03-15T11:31:59.443Z,20.36
2019-03-15T11:32:59.445Z,20.39
2019-03-15T11:33:59.648Z,20.39
2019-03-15T11:34:59.479Z,20.37
2019-03-15T11:35:59.376Z,20.42
2019-03-15T11:36:59.367Z,20.4
2019-03-15T11:37:59.226Z,20.42
2019-03-15T11:38:59.403Z,20.46
2019-03-15T11:39:59.404Z,20.43
2019-03-15T11:40:59.331Z,20.44
2019-03-15T11:41:59.505Z,20.46
2019-03-15T11:42:59.547Z,20.47
2019-03-15T11:43:59.343Z,20.5
2019-03-15T11:44:59.361Z,20.48
2019-03-15T11:45:59.411Z,20.5
2019-03-15T11:46:59.454Z,20.5
2019-03-15T11:48:04.945Z,20.5
2019-03-15T11:48:59.326Z,20.53
2019-03-15T11:49:59.309Z,20.51
2019-03-15T11:50:59.499Z,20.54
2019-03-15T11:51:59.303Z,20.53
2019-03-15T11:52:59.292Z,20.55
2019-03-15T11:53:59.509Z,20.54
2019-03-15T11:54:59.257Z,20.55
2019-03-15T11:55:59.320Z,20.55
2019-03-15T11:56:59.492Z,20.57
2019-03-15T11:57:59.603Z,20.6
2019-03-15T11:58:59.464Z,20.6
2019-03-15T11:59:59.221Z,20.59
2019-03-15T12:00:59.322Z,20.59
2019-03-15T12:02:04.737Z,20.59
2019-03-15T12:02:59.214Z,20.6
2019-03-15T12:03:59.337Z,20.6
2019-03-15T12:04:59.545Z,20.61
2019-03-15T12:05:59.296Z,20.6
2019-03-15T12:06:59.619Z,20.61
2019-03-15T12:07:59.293Z,20.64
2019-03-15T12:08:59.385Z,20.6
2019-03-15T12:09:59.374Z,20.66
2019-03-15T12:10:59.256Z,20.63
2019-03-15T12:11:59.407Z,20.66
2019-03-15T12:12:59.432Z,20.67
2019-03-15T12:13:59.464Z,20.67
2019-03-15T12:14:59.398Z,20.67
2019-03-15T12:15:59.436Z,20.68
2019-03-15T12:16:59.208Z,20.7
2019-03-15T12:17:59.304Z,20.7
2019-03-15T12:18:59.675Z,20.68
2019-03-15T12:19:59.311Z,20.7
2019-03-15T12:20:59.326Z,20.7
2019-03-15T12:22:07.078Z,20.7
2019-03-15T12:22:59.269Z,20.71
2019-03-15T12:23:59.461Z,20.71
2019-03-15T12:24:59.394Z,20.72
2019-03-15T12:25:59.326Z,20.72
2019-03-15T12:26:59.371Z,20.75
2019-03-15T12:27:59.141Z,20.74
2019-03-15T12:28:59.367Z,20.72
2019-03-15T12:29:59.362Z,20.72
2019-03-15T12:30:59.561Z,20.77
2019-03-15T12:31:59.308Z,20.74
2019-03-15T12:32:59.368Z,20.72
2019-03-15T12:33:59.288Z,20.77
2019-03-15T12:34:59.266Z,20.74
2019-03-15T12:35:59.562Z,20.74
2019-03-15T12:36:59.192Z,20.78
2019-03-15T12:37:59.399Z,20.74
2019-03-15T12:38:59.377Z,20.77
2019-03-15T12:39:59.327Z,20.77
2019-03-15T12:40:59.507Z,20.78
2019-03-15T12:41:59.239Z,20.8
2019-03-15T12:42:59.238Z,20.82
2019-03-15T12:43:59.328Z,20.77
2019-03-15T12:44:59.245Z,20.78
2019-03-15T12:45:59.247Z,20.78
2019-03-15T12:46:59.587Z,20.8
2019-03-15T12:47:59.229Z,20.81
2019-03-15T12:48:59.270Z,20.81
2019-03-15T12:49:59.395Z,20.8
2019-03-15T12:50:59.277Z,20.8
2019-03-15T12:51:59.603Z,20.82
2019-03-15T12:52:59.135Z,20.81
2019-03-15T12:53:59.343Z,20.81
2019-03-15T12:54:59.319Z,20.84
2019-03-15T12:55:59.316Z,20.81